Time,TemperatureF,DewpointF,PressureIn,WindDirection,WindDirectionDegrees,WindSpeedMPH,WindSpeedGustMPH,Humidity,HourlyPrecipIn,Conditions,Clouds,dailyrainin,SolarRadiationWatts/m^2,SoftwareType,DateUTC
2013-09-01 00:00:00,57.1,46.2,30.29,NNW,327,3.0,4.6,67,0.00,CLR,,0.05,0.0,WeatherDisplay:10.37,2013-08-31 22:00:00,
2013-09-01 00:05:00,57.0,46.1,30.29,NNW,327,1.8,6.0,67,0.00,RA,,0.00,0.0,WeatherDisplay:10.37,2013-08-31 22:05:00,
2013-09-01 00:10:00,57.0,46.1,30.29,NNW,327,0.0,0.0,67,0.00,RA,,0.00,0.0,WeatherDisplay:10.37,2013-08-31 22:10:00,
2013-09-01 00:15:00,57.0,46.1,30.29,NNW,327,0.0,0.0,67,0.00,RA,,0.00,0.0,WeatherDisplay:10.37,2013-08-31 22:15:00,
2013-09-01 00:20:00,56.9,46.0,30.29,NNW,327,0.0,0.0,67,0.00,RA,,0.00,0.0,WeatherDisplay:10.37,2013-08-31 22:20:00,
2013-09-01 00:25:00,56.7,46.2,30.29,NNW,327,0.0,0.0,68,0.00,RA,,0.00,0.0,WeatherDisplay:10.37,2013-08-31 22:25:00,
2013-09-01 00:30:00,56.5,46.4,30.29,NNW,327,0.0,0.0,69,0.00,CLR,,0.00,0.0,WeatherDisplay:10.37,2013-08-31 22:30:00,
2013-09-01 00:35:00,56.2,46.1,30.29,NNW,327,0.0,0.0,69,0.00,CLR,,0.00,0.0,WeatherDisplay:10.37,2013-08-31 22:35:00,
2013-09-01 00:40:00,56.0,46.3,30.29,NNW,327,0.0,0.0,70,0.00,CLR,,0.00,0.0,WeatherDisplay:10.37,2013-08-31 22:40:00,
2013-09-01 00:45:00,55.8,46.1,30.29,NNW,327,0.0,0.0,70,0.00,CLR,,0.00,0.0,WeatherDisplay:10.37,2013-08-31 22:45:00,
2013-09-01 00:50:00,55.6,46.3,30.29,NNW,327,0.0,0.0,71,0.00,CLR,,0.00,0.0,WeatherDisplay:10.37,2013-08-31 22:50:00,
2013-09-01 00:55:00,55.5,46.2,30.29,NNW,327,0.0,0.0,71,0.00,CLR,,0.00,0.0,WeatherDisplay:10.37,2013-08-31 22:55:00,
2013-09-01 01:00:00,55.3,46.4,30.29,NNW,327,0.0,0.0,72,0.00,CLR,,0.00,0.0,WeatherDisplay:10.37,2013-08-31 23:00:00,
2013-09-01 01:05:00,55.0,46.5,30.29,NNW,327,0.0,0.0,73,0.00,CLR,,0.00,0.0,WeatherDisplay:10.37,2013-08-31 23:05:00,
2013-09-01 01:10:00,54.8,46.7,30.30,NNW,327,0.0,0.0,74,0.00,CLR,,0.00,0.0,WeatherDisplay:10.37,2013-08-31 23:10:00,
2013-09-01 01:15:00,54.6,47.2,30.30,NNW,327,0.0,0.0,76,0.00,CLR,,0.00,0.0,WeatherDisplay:10.37,2013-08-31 23:15:00,
2013-09-01 01:20:00,54.4,47.3,30.29,NNW,327,0.0,0.0,77,0.00,CLR,,0.00,0.0,WeatherDisplay:10.37,2013-08-31 23:20:00,
2013-09-01 01:25:00,54.2,47.5,30.29,NNW,327,0.0,0.0,78,0.00,CLR,,0.00,0.0,WeatherDisplay:10.37,2013-08-31 23:25:00,
2013-09-01 01:30:00,54.0,47.6,30.30,NNW,327,0.0,0.0,79,0.00,CLR,,0.00,0.0,WeatherDisplay:10.37,2013-08-31 23:30:00,
2013-09-01 01:31:00,54.0,47.6,30.30,NNW,327,0.0,0.0,79,0.00,CLR,,0.00,0.0,WeatherDisplay:10.37,2013-08-31 23:31:00,
2013-09-01 01:36:00,53.7,47.3,30.30,NNW,327,0.0,0.0,79,0.00,CLR,,0.00,0.0,WeatherDisplay:10.37,2013-08-31 23:36:00,
2013-09-01 01:41:00,53.5,47.5,30.30,NNW,327,0.0,0.0,80,0.00,CLR,,0.00,0.0,WeatherDisplay:10.37,2013-08-31 23:41:00,
2013-09-01 01:46:00,53.3,47.3,30.30,NNW,327,0.0,0.0,80,0.00,CLR,,0.00,0.0,WeatherDisplay:10.37,2013-08-31 23:46:00,
2013-09-01 01:51:00,53.1,47.4,30.29,NNW,327,0.0,0.0,81,0.00,CLR,,0.00,0.0,WeatherDisplay:10.37,2013-08-31 23:51:00,
2013-09-01 01:56:00,53.0,47.3,30.30,NNW,327,0.0,0.0,81,0.00,CLR,,0.00,0.0,WeatherDisplay:10.37,2013-08-31 23:56:00,
2013-09-01 02:01:00,52.9,47.5,30.30,NNW,327,0.0,0.0,82,0.00,CLR,,0.00,0.0,WeatherDisplay:10.37,2013-09-01 00:01:00,
2013-09-01 02:06:00,52.8,47.4,30.30,NNW,327,0.0,0.0,82,0.00,CLR,,0.00,0.0,WeatherDisplay:10.37,2013-09-01 00:06:00,
2013-09-01 02:11:00,52.6,47.6,30.30,NNW,327,0.0,0.0,83,0.00,CLR,,0.00,0.0,WeatherDisplay:10.37,2013-09-01 00:11:00,
2013-09-01 02:16:00,52.5,47.5,30.30,NNW,327,0.0,0.0,83,0.00,CLR,,0.00,0.0,WeatherDisplay:10.37,2013-09-01 00:16:00,
2013-09-01 02:21:00,52.3,47.3,30.30,NNW,327,0.0,0.0,83,0.00,CLR,,0.00,0.0,WeatherDisplay:10.37,2013-09-01 00:21:00,
2013-09-01 02:26:00,52.2,47.5,30.30,NNW,327,0.0,0.0,84,0.00,CLR,,0.00,0.0,WeatherDisplay:10.37,2013-09-01 00:26:00,
2013-09-01 02:31:00,52.1,47.4,30.30,NNW,327,0.0,0.0,84,0.00,CLR,,0.00,0.0,WeatherDisplay:10.37,2013-09-01 00:31:00,
2013-09-01 02:36:00,52.1,47.4,30.30,NNW,327,0.0,0.0,84,0.00,CLR,,0.00,0.0,WeatherDisplay:10.37,2013-09-01 00:36:00,
2013-09-01 02:41:00,52.0,47.6,30.30,NNW,327,0.0,0.0,85,0.00,CLR,,0.00,0.0,WeatherDisplay:10.37,2013-09-01 00:41:00,
2013-09-01 02:46:00,51.9,47.5,30.30,NNW,327,0.0,0.0,85,0.00,CLR,,0.00,0.0,WeatherDisplay:10.37,2013-09-01 00:46:00,
2013-09-01 02:51:00,51.8,47.7,30.30,NNW,327,0.0,0.0,86,0.00,CLR,,0.00,0.0,WeatherDisplay:10.37,2013-09-01 00:51:00,
2013-09-01 02:56:00,51.6,47.5,30.30,NNW,327,0.0,0.0,86,0.00,CLR,,0.00,0.0,WeatherDisplay:10.37,2013-09-01 00:56:00,
2013-09-01 03:01:00,51.5,47.4,30.30,NNW,327,0.3,2.3,86,0.00,CLR,,0.00,0.0,WeatherDisplay:10.37,2013-09-01 01:01:00,
2013-09-01 03:06:00,51.4,47.3,30.30,NNW,327,0.0,0.0,86,0.00,CLR,,0.00,0.0,WeatherDisplay:10.37,2013-09-01 01:06:00,
2013-09-01 03:11:00,51.1,47.0,30.30,NNW,327,0.0,0.0,86,0.00,CLR,,0.00,0.0,WeatherDisplay:10.37,2013-09-01 01:11:00,
2013-09-01 03:16:00,50.8,46.7,30.30,NNW,327,0.0,0.0,86,0.00,CLR,,0.00,0.0,WeatherDisplay:10.37,2013-09-01 01:16:00,
2013-09-01 03:21:00,50.7,46.6,30.30,NNW,327,0.0,0.0,86,0.00,CLR,,0.00,0.0,WeatherDisplay:10.37,2013-09-01 01:21:00,
2013-09-01 03:26:00,50.7,47.0,30.30,NNW,327,0.0,0.0,87,0.00,CLR,,0.00,0.0,WeatherDisplay:10.37,2013-09-01 01:26:00,
2013-09-01 03:31:00,50.7,47.0,30.30,NNW,327,0.0,0.0,87,0.00,CLR,,0.00,0.0,WeatherDisplay:10.37,2013-09-01 01:31:00,
2013-09-01 03:36:00,50.9,47.1,30.30,NNW,327,0.0,0.0,87,0.00,CLR,,0.00,0.0,WeatherDisplay:10.37,2013-09-01 01:36:00,
2013-09-01 03:41:00,51.1,47.3,30.30,NNW,327,0.0,0.0,87,0.00,CLR,,0.00,0.0,WeatherDisplay:10.37,2013-09-01 01:41:00,
2013-09-01 03:46:00,51.3,47.5,30.30,NNW,327,0.0,0.0,87,0.00,CLR,,0.00,0.0,WeatherDisplay:10.37,2013-09-01 01:46:00,
2013-09-01 03:51:00,51.4,47.6,30.30,NNW,327,0.0,0.0,87,0.00,CLR,,0.00,0.0,WeatherDisplay:10.37,2013-09-01 01:51:00,
2013-09-01 03:56:00,51.7,47.6,30.30,NNW,327,0.0,0.0,86,0.00,CLR,,0.00,0.0,WeatherDisplay:10.37,2013-09-01 01:56:00,
2013-09-01 04:01:00,52.0,47.6,30.30,NNW,327,0.0,0.0,85,0.00,CLR,,0.00,0.0,WeatherDisplay:10.37,2013-09-01 02:01:00,
2013-09-01 04:06:00,52.2,47.8,30.30,NNW,327,0.0,0.0,85,0.00,CLR,,0.00,0.0,WeatherDisplay:10.37,2013-09-01 02:06:00,
2013-09-01 04:11:00,52.5,47.8,30.30,NNW,327,1.5,4.6,84,0.00,CLR,,0.00,0.0,WeatherDisplay:10.37,2013-09-01 02:11:00,
2013-09-01 04:16:00,52.9,47.9,30.30,NNW,327,0.0,0.0,83,0.00,FEW,,0.00,0.0,WeatherDisplay:10.37,2013-09-01 02:16:00,
2013-09-01 04:21:00,53.2,47.5,30.30,NNW,327,0.0,0.0,81,0.00,FEW,,0.00,0.0,WeatherDisplay:10.37,2013-09-01 02:21:00,
2013-09-01 04:26:00,53.2,47.5,30.29,NNW,327,0.0,0.0,81,0.00,FEW,,0.00,0.0,WeatherDisplay:10.37,2013-09-01 02:26:00,
2013-09-01 04:31:00,53.3,47.3,30.29,NNW,327,0.0,0.0,80,0.00,FEW,,0.00,0.0,WeatherDisplay:10.37,2013-09-01 02:31:00,
2013-09-01 04:36:00,53.3,47.3,30.30,NNW,327,0.0,0.0,80,0.00,FEW,,0.00,0.0,WeatherDisplay:10.37,2013-09-01 02:36:00,
2013-09-01 04:41:00,53.4,47.0,30.30,NNW,327,0.0,0.0,79,0.00,FEW,,0.00,0.0,WeatherDisplay:10.37,2013-09-01 02:41:00,
2013-09-01 04:46:00,53.5,47.1,30.29,NNW,327,0.0,0.0,79,0.00,CLR,,0.00,0.0,WeatherDisplay:10.37,2013-09-01 02:46:00,
2013-09-01 04:51:00,53.5,47.1,30.29,NNW,327,0.0,0.0,79,0.00,CLR,,0.00,0.0,WeatherDisplay:10.37,2013-09-01 02:51:00,
2013-09-01 04:56:00,53.4,47.0,30.29,NNW,327,0.0,0.0,79,0.00,CLR,,0.00,0.0,WeatherDisplay:10.37,2013-09-01 02:56:00,
2013-09-01 05:01:00,53.4,47.4,30.29,NNW,327,0.0,0.0,80,0.00,CLR,,0.00,0.0,WeatherDisplay:10.37,2013-09-01 03:01:00,
2013-09-01 05:06:00,53.2,48.2,30.29,NNW,327,0.0,0.0,83,0.00,CLR,,0.00,0.0,WeatherDisplay:10.37,2013-09-01 03:06:00,
2013-09-01 05:11:00,53.1,47.1,30.29,NNW,327,0.0,0.0,80,0.00,CLR,,0.00,0.0,WeatherDisplay:10.37,2013-09-01 03:11:00,
2013-09-01 05:16:00,53.0,47.6,30.29,NNW,327,0.0,0.0,82,0.00,CLR,,0.00,0.0,WeatherDisplay:10.37,2013-09-01 03:16:00,
2013-09-01 05:21:00,52.8,47.4,30.29,NNW,327,0.0,0.0,82,0.00,CLR,,0.00,0.0,WeatherDisplay:10.37,2013-09-01 03:21:00,
2013-09-01 05:26:00,52.6,47.2,30.29,NNW,327,0.0,0.0,82,0.00,CLR,,0.00,0.0,WeatherDisplay:10.37,2013-09-01 03:26:00,
2013-09-01 05:31:00,52.5,47.5,30.29,NNW,327,0.0,0.0,83,0.00,CLR,,0.00,0.0,WeatherDisplay:10.37,2013-09-01 03:31:00,
2013-09-01 05:36:00,52.2,47.5,30.29,NNW,327,0.0,0.0,84,0.00,CLR,,0.00,0.0,WeatherDisplay:10.37,2013-09-01 03:36:00,
2013-09-01 05:41:00,52.0,47.3,30.29,NNW,327,0.0,0.0,84,0.00,CLR,,0.00,0.0,WeatherDisplay:10.37,2013-09-01 03:41:00,
2013-09-01 05:46:00,51.7,47.3,30.29,NNW,327,0.0,0.0,85,0.00,CLR,,0.00,0.0,WeatherDisplay:10.37,2013-09-01 03:46:00,
2013-09-01 05:51:00,51.5,47.1,30.29,NNW,327,0.0,0.0,85,0.00,CLR,,0.00,0.0,WeatherDisplay:10.37,2013-09-01 03:51:00,
2013-09-01 05:56:00,51.3,46.9,30.28,NNW,327,0.0,0.0,85,0.00,CLR,,0.00,0.0,WeatherDisplay:10.37,2013-09-01 03:56:00,
2013-09-01 06:01:00,51.2,46.8,30.29,NNW,327,0.0,0.0,85,0.00,CLR,,0.00,0.0,WeatherDisplay:10.37,2013-09-01 04:01:00,
2013-09-01 06:02:00,51.1,46.7,30.29,NNW,327,0.0,0.0,85,0.00,CLR,,0.00,0.0,WeatherDisplay:10.37,2013-09-01 04:02:00,
2013-09-01 06:07:00,51.1,46.7,30.29,NNW,327,0.0,0.0,85,0.00,CLR,,0.00,0.0,WeatherDisplay:10.37,2013-09-01 04:07:00,
2013-09-01 06:12:00,51.0,46.6,30.28,NNW,327,0.0,0.0,85,0.00,CLR,,0.00,0.0,WeatherDisplay:10.37,2013-09-01 04:12:00,
2013-09-01 06:17:00,51.1,47.0,30.28,NNW,327,0.0,0.0,86,0.00,CLR,,0.00,0.0,WeatherDisplay:10.37,2013-09-01 04:17:00,
2013-09-01 06:22:00,51.1,47.0,30.29,NNW,327,0.0,0.0,86,0.00,CLR,,0.00,0.0,WeatherDisplay:10.37,2013-09-01 04:22:00,
2013-09-01 06:27:00,51.1,47.0,30.29,NNW,327,0.0,0.0,86,0.00,CLR,,0.00,0.0,WeatherDisplay:10.37,2013-09-01 04:27:00,
2013-09-01 06:32:00,51.2,47.1,30.29,NNW,327,0.0,0.0,86,0.00,CLR,,0.00,0.0,WeatherDisplay:10.37,2013-09-01 04:32:00,
2013-09-01 06:37:00,51.3,47.2,30.29,NNW,327,0.0,0.0,86,0.00,CLR,,0.00,0.0,WeatherDisplay:10.37,2013-09-01 04:37:00,
2013-09-01 06:42:00,51.4,47.3,30.29,NNW,327,0.0,0.0,86,0.00,CLR,,0.00,0.0,WeatherDisplay:10.37,2013-09-01 04:42:00,
2013-09-01 06:47:00,51.4,47.3,30.29,NNW,327,0.0,0.0,86,0.00,CLR,,0.00,0.0,WeatherDisplay:10.37,2013-09-01 04:47:00,
2013-09-01 06:52:00,51.5,47.4,30.29,NNW,327,0.0,0.0,86,0.00,CLR,,0.00,0.0,WeatherDisplay:10.37,2013-09-01 04:52:00,
2013-09-01 06:57:00,51.6,47.5,30.29,NNW,327,0.0,0.0,86,0.00,CLR,,0.00,0.0,WeatherDisplay:10.37,2013-09-01 04:57:00,
2013-09-01 07:02:00,51.6,47.5,30.29,NNW,327,0.0,0.0,86,0.00,CLR,,0.00,5.0,WeatherDisplay:10.37,2013-09-01 05:02:00,
2013-09-01 07:07:00,51.6,47.5,30.29,NNW,327,0.0,0.0,86,0.00,FEW,,0.00,9.0,WeatherDisplay:10.37,2013-09-01 05:07:00,
2013-09-01 07:12:00,51.6,47.5,30.29,NNW,327,0.0,0.0,86,0.00,FEW,,0.00,12.0,WeatherDisplay:10.37,2013-09-01 05:12:00,
2013-09-01 07:17:00,51.7,47.6,30.30,NNW,327,0.0,0.0,86,0.00,FEW,,0.00,18.0,WeatherDisplay:10.37,2013-09-01 05:17:00,
2013-09-01 07:22:00,51.8,47.7,30.30,NNW,327,0.0,0.0,86,0.00,FEW,,0.00,21.0,WeatherDisplay:10.37,2013-09-01 05:22:00,
2013-09-01 07:27:00,51.9,47.8,30.30,NNW,327,0.0,0.0,86,0.00,FEW,,0.00,25.0,WeatherDisplay:10.37,2013-09-01 05:27:00,
2013-09-01 07:32:00,52.1,48.3,30.30,NNW,327,0.0,3.5,87,0.00,FEW,,0.00,32.0,WeatherDisplay:10.37,2013-09-01 05:32:00,
2013-09-01 07:37:00,52.4,48.6,30.30,NNW,327,0.0,0.0,87,0.00,CLR,,0.00,42.0,WeatherDisplay:10.37,2013-09-01 05:37:00,
2013-09-01 07:42:00,52.8,49.0,30.30,NNW,327,0.0,0.0,87,0.00,CLR,,0.00,46.0,WeatherDisplay:10.37,2013-09-01 05:42:00,
2013-09-01 07:47:00,53.4,49.6,30.30,NNW,327,0.0,0.0,87,0.00,CLR,,0.00,63.0,WeatherDisplay:10.37,2013-09-01 05:47:00,
2013-09-01 07:52:00,53.9,49.8,30.30,NNW,327,0.0,0.0,86,0.00,CLR,,0.00,54.0,WeatherDisplay:10.37,2013-09-01 05:52:00,
2013-09-01 07:57:00,54.4,50.3,30.30,NNW,327,0.0,0.0,86,0.00,OVC,,0.00,62.0,WeatherDisplay:10.37,2013-09-01 05:57:00,
2013-09-01 08:02:00,55.1,50.7,30.30,NW,325,1.9,3.5,85,0.00,OVC,,0.00,70.0,WeatherDisplay:10.37,2013-09-01 06:02:00,
2013-09-01 08:07:00,56.0,50.9,30.30,NW,322,2.6,3.5,83,0.00,OVC,,0.00,70.0,WeatherDisplay:10.37,2013-09-01 06:07:00,
2013-09-01 08:12:00,56.6,50.8,30.30,NW,319,3.2,5.8,81,0.00,OVC,,0.00,72.0,WeatherDisplay:10.37,2013-09-01 06:12:00,
2013-09-01 08:17:00,57.3,50.5,30.30,WNW,298,4.4,6.0,78,0.00,OVC,,0.00,76.0,WeatherDisplay:10.37,2013-09-01 06:17:00,
2013-09-01 08:22:00,57.8,50.6,30.30,WNW,298,4.0,5.8,77,0.00,OVC,,0.00,81.0,WeatherDisplay:10.37,2013-09-01 06:22:00,
2013-09-01 08:27:00,58.1,50.6,30.30,WNW,298,2.6,4.6,76,0.00,OVC,,0.00,88.0,WeatherDisplay:10.37,2013-09-01 06:27:00,
2013-09-01 08:32:00,58.3,50.0,30.31,NW,309,2.3,5.8,74,0.00,OVC,,0.00,95.0,WeatherDisplay:10.37,2013-09-01 06:32:00,
2013-09-01 08:37:00,58.4,49.8,30.31,WNW,303,4.6,9.2,73,0.00,OVC,,0.00,97.0,WeatherDisplay:10.37,2013-09-01 06:37:00,
2013-09-01 08:42:00,58.6,50.0,30.31,WNW,296,5.0,6.9,73,0.00,OVC,,0.00,100.0,WeatherDisplay:10.37,2013-09-01 06:42:00,
2013-09-01 08:47:00,58.6,49.6,30.31,WNW,300,6.6,10.4,72,0.00,OVC,,0.00,107.0,WeatherDisplay:10.37,2013-09-01 06:47:00,
2013-09-01 08:52:00,58.7,49.7,30.31,NW,305,4.3,5.8,72,0.00,OVC,,0.00,116.0,WeatherDisplay:10.37,2013-09-01 06:52:00,
2013-09-01 08:57:00,58.7,49.3,30.31,WNW,288,6.3,8.1,71,0.00,OVC,,0.00,127.0,WeatherDisplay:10.37,2013-09-01 06:57:00,
2013-09-01 09:02:00,58.9,49.5,30.31,WNW,297,4.4,9.2,71,0.00,OVC,,0.00,155.0,WeatherDisplay:10.37,2013-09-01 07:02:00,
2013-09-01 09:07:00,59.0,49.6,30.31,WNW,302,4.2,8.1,71,0.00,BKN,,0.00,153.0,WeatherDisplay:10.37,2013-09-01 07:07:00,
2013-09-01 09:12:00,59.2,49.4,30.31,WNW,303,6.6,10.4,70,0.00,BKN,,0.00,213.0,WeatherDisplay:10.37,2013-09-01 07:12:00,
2013-09-01 09:17:00,59.4,49.6,30.31,WNW,298,4.5,7.0,70,0.00,BKN,,0.00,214.0,WeatherDisplay:10.37,2013-09-01 07:17:00,
2013-09-01 09:22:00,59.6,49.4,30.31,WNW,299,5.1,11.5,69,0.00,BKN,,0.00,197.0,WeatherDisplay:10.37,2013-09-01 07:22:00,
2013-09-01 09:27:00,59.7,49.1,30.32,WNW,284,7.5,12.7,68,0.00,BKN,,0.00,178.0,WeatherDisplay:10.37,2013-09-01 07:27:00,
2013-09-01 09:32:00,59.8,49.2,30.32,WNW,295,7.0,8.0,68,0.00,OVC,,0.00,165.0,WeatherDisplay:10.37,2013-09-01 07:32:00,
2013-09-01 09:37:00,59.9,48.9,30.32,WNW,298,8.1,11.5,67,0.00,BKN,,0.00,199.0,WeatherDisplay:10.37,2013-09-01 07:37:00,
2013-09-01 09:42:00,60.0,49.4,30.32,WNW,298,6.0,7.0,68,0.00,BKN,,0.00,174.0,WeatherDisplay:10.37,2013-09-01 07:42:00,
2013-09-01 09:47:00,60.0,49.4,30.32,WNW,290,4.9,9.2,68,0.00,BKN,,0.00,276.0,WeatherDisplay:10.37,2013-09-01 07:47:00,
2013-09-01 09:52:00,60.1,49.5,30.32,WNW,294,3.3,5.8,68,0.00,BKN,,0.00,269.0,WeatherDisplay:10.37,2013-09-01 07:52:00,
2013-09-01 09:57:00,60.3,49.3,30.32,WNW,286,6.7,10.4,67,0.00,BKN,,0.00,294.0,WeatherDisplay:10.37,2013-09-01 07:57:00,
2013-09-01 10:02:00,60.5,49.1,30.32,West,265,6.6,9.2,66,0.00,BKN,,0.00,313.0,WeatherDisplay:10.37,2013-09-01 08:02:00,
2013-09-01 10:07:00,60.7,48.8,30.32,WSW,256,4.9,9.2,65,0.00,FEW,,0.00,353.0,WeatherDisplay:10.37,2013-09-01 08:07:00,
2013-09-01 10:12:00,61.0,49.1,30.32,WNW,287,5.7,7.0,65,0.00,FEW,,0.00,359.0,WeatherDisplay:10.37,2013-09-01 08:12:00,
2013-09-01 10:17:00,61.1,49.2,30.32,NW,305,3.7,6.9,65,0.00,FEW,,0.00,148.0,WeatherDisplay:10.37,2013-09-01 08:17:00,
2013-09-01 10:22:00,61.2,49.7,30.32,WNW,292,8.9,12.7,66,0.00,FEW,,0.00,104.0,WeatherDisplay:10.37,2013-09-01 08:22:00,
2013-09-01 10:27:00,60.9,49.8,30.32,West,275,5.6,10.4,67,0.00,FEW,,0.00,190.0,WeatherDisplay:10.37,2013-09-01 08:27:00,
2013-09-01 10:32:00,60.7,50.1,30.32,WNW,296,7.7,12.7,68,0.00,FEW,,0.00,132.0,WeatherDisplay:10.37,2013-09-01 08:32:00,
2013-09-01 10:37:00,60.7,50.8,30.32,WNW,300,6.1,9.2,70,0.00,FEW,,0.00,120.0,WeatherDisplay:10.37,2013-09-01 08:37:00,
2013-09-01 10:42:00,60.6,50.7,30.32,WNW,294,7.6,12.7,70,0.00,FEW,,0.00,193.0,WeatherDisplay:10.37,2013-09-01 08:42:00,
2013-09-01 10:47:00,60.5,50.3,30.32,West,277,5.4,10.4,69,0.00,FEW,,0.00,236.0,WeatherDisplay:10.37,2013-09-01 08:47:00,
2013-09-01 10:52:00,60.7,50.1,30.32,NW,307,7.9,12.7,68,0.00,FEW,,0.00,341.0,WeatherDisplay:10.37,2013-09-01 08:52:00,
2013-09-01 10:57:00,60.9,50.6,30.32,WNW,286,6.0,11.0,69,0.00,FEW,,0.00,290.0,WeatherDisplay:10.37,2013-09-01 08:57:00,
2013-09-01 11:02:00,61.1,50.0,30.32,WNW,291,6.3,9.2,67,0.00,FEW,,0.00,301.0,WeatherDisplay:10.37,2013-09-01 09:02:00,
2013-09-01 11:07:00,61.4,49.9,30.32,WNW,292,6.5,13.8,66,0.00,OVC,,0.00,306.0,WeatherDisplay:10.37,2013-09-01 09:07:00,
2013-09-01 11:12:00,61.3,49.4,30.32,WNW,299,8.0,15.0,65,0.00,OVC,,0.00,336.0,WeatherDisplay:10.37,2013-09-01 09:12:00,
2013-09-01 11:17:00,61.4,49.1,30.33,West,271,8.0,15.0,64,0.00,OVC,,0.00,250.0,WeatherDisplay:10.37,2013-09-01 09:17:00,
2013-09-01 11:22:00,61.4,49.5,30.33,WNW,294,8.1,13.8,65,0.00,OVC,,0.00,118.0,WeatherDisplay:10.37,2013-09-01 09:22:00,
2013-09-01 11:27:00,61.1,49.6,30.33,WNW,292,8.0,10.4,66,0.00,OVC,,0.00,93.0,WeatherDisplay:10.37,2013-09-01 09:27:00,
2013-09-01 11:32:00,60.8,50.1,30.33,West,269,5.5,9.2,68,0.00,OVC,,0.00,137.0,WeatherDisplay:10.37,2013-09-01 09:32:00,
2013-09-01 11:37:00,60.7,50.4,30.33,West,274,6.1,8.1,69,0.00,BKN,,0.00,134.0,WeatherDisplay:10.37,2013-09-01 09:37:00,
2013-09-01 11:42:00,60.7,50.8,30.33,West,279,7.8,10.4,70,0.00,BKN,,0.00,163.0,WeatherDisplay:10.37,2013-09-01 09:42:00,
2013-09-01 11:47:00,60.7,51.2,30.33,WNW,302,7.2,12.0,71,0.00,BKN,,0.00,227.0,WeatherDisplay:10.37,2013-09-01 09:47:00,
2013-09-01 11:52:00,60.8,50.9,30.33,WNW,286,6.1,11.5,70,0.00,BKN,,0.00,429.0,WeatherDisplay:10.37,2013-09-01 09:52:00,
2013-09-01 11:57:00,61.1,51.2,30.33,West,267,6.8,9.2,70,0.00,BKN,,0.00,471.0,WeatherDisplay:10.37,2013-09-01 09:57:00,
2013-09-01 12:02:00,61.6,51.3,30.33,West,263,9.9,12.7,69,0.00,BKN,,0.00,322.0,WeatherDisplay:10.37,2013-09-01 10:02:00,
2013-09-01 12:07:00,61.7,50.6,30.32,WNW,298,7.8,12.7,67,0.00,OVC,,0.00,285.0,WeatherDisplay:10.37,2013-09-01 10:07:00,
2013-09-01 12:12:00,61.4,49.9,30.32,WNW,288,10.4,12.7,66,0.00,OVC,,0.00,269.0,WeatherDisplay:10.37,2013-09-01 10:12:00,
2013-09-01 12:17:00,61.3,50.2,30.33,WNW,300,4.5,9.2,67,0.00,OVC,,0.00,318.0,WeatherDisplay:10.37,2013-09-01 10:17:00,
2013-09-01 12:22:00,61.5,50.4,30.33,West,270,5.2,11.5,67,0.00,OVC,,0.00,436.0,WeatherDisplay:10.37,2013-09-01 10:22:00,
2013-09-01 12:27:00,61.7,49.0,30.33,West,277,9.3,12.7,63,0.00,OVC,,0.00,432.0,WeatherDisplay:10.37,2013-09-01 10:27:00,
2013-09-01 12:32:00,61.8,49.5,30.33,WNW,286,4.9,9.2,64,0.00,OVC,,0.00,334.0,WeatherDisplay:10.37,2013-09-01 10:32:00,
2013-09-01 12:37:00,61.8,49.9,30.33,NW,318,9.4,15.0,65,0.00,OVC,,0.00,283.0,WeatherDisplay:10.37,2013-09-01 10:37:00,
2013-09-01 12:42:00,61.7,49.8,30.32,WNW,294,6.3,8.1,65,0.00,OVC,,0.00,352.0,WeatherDisplay:10.37,2013-09-01 10:42:00,
2013-09-01 12:47:00,61.8,49.0,30.32,WNW,282,8.2,11.5,63,0.00,OVC,,0.00,468.0,WeatherDisplay:10.37,2013-09-01 10:47:00,
2013-09-01 12:52:00,62.0,49.2,30.32,WNW,288,6.5,10.4,63,0.00,OVC,,0.00,452.0,WeatherDisplay:10.37,2013-09-01 10:52:00,
2013-09-01 12:57:00,62.2,49.8,30.32,West,273,6.7,10.4,64,0.00,OVC,,0.00,443.0,WeatherDisplay:10.37,2013-09-01 10:57:00,
2013-09-01 13:02:00,62.4,49.6,30.32,NW,309,7.0,10.4,63,0.00,OVC,,0.00,408.0,WeatherDisplay:10.37,2013-09-01 11:02:00,
2013-09-01 13:07:00,62.2,48.6,30.33,West,278,8.0,11.5,61,0.00,FEW,,0.00,512.0,WeatherDisplay:10.37,2013-09-01 11:07:00,
2013-09-01 13:12:00,62.5,49.3,30.33,NW,313,7.8,16.0,62,0.00,FEW,,0.00,482.0,WeatherDisplay:10.37,2013-09-01 11:12:00,
2013-09-01 13:17:00,62.3,48.7,30.33,WNW,284,4.8,5.8,61,0.00,FEW,,0.00,392.0,WeatherDisplay:10.37,2013-09-01 11:17:00,
2013-09-01 13:22:00,62.4,48.7,30.32,NW,309,5.6,11.5,61,0.00,FEW,,0.00,436.0,WeatherDisplay:10.37,2013-09-01 11:22:00,
2013-09-01 13:27:00,62.4,49.2,30.33,West,259,9.4,16.1,62,0.00,FEW,,0.00,469.0,WeatherDisplay:10.37,2013-09-01 11:27:00,
2013-09-01 13:32:00,62.4,49.6,30.33,WNW,294,6.8,11.5,63,0.00,FEW,,0.00,438.0,WeatherDisplay:10.37,2013-09-01 11:32:00,
2013-09-01 13:37:00,62.4,49.6,30.33,NNW,333,8.9,12.7,63,0.00,OVC,,0.00,387.0,WeatherDisplay:10.37,2013-09-01 11:37:00,
2013-09-01 13:42:00,62.2,48.6,30.33,WSW,257,7.9,11.5,61,0.00,OVC,,0.00,366.0,WeatherDisplay:10.37,2013-09-01 11:42:00,
2013-09-01 13:47:00,62.1,49.3,30.32,West,259,7.5,11.5,63,0.00,OVC,,0.00,352.0,WeatherDisplay:10.37,2013-09-01 11:47:00,
2013-09-01 13:52:00,62.0,49.7,30.32,WSW,253,8.5,11.5,64,0.00,OVC,,0.00,327.0,WeatherDisplay:10.37,2013-09-01 11:52:00,
2013-09-01 13:57:00,62.0,49.2,30.33,WNW,282,9.7,10.4,63,0.00,OVC,,0.00,322.0,WeatherDisplay:10.37,2013-09-01 11:57:00,
2013-09-01 14:02:00,61.9,49.1,30.32,West,269,7.4,11.0,63,0.00,OVC,,0.00,313.0,WeatherDisplay:10.37,2013-09-01 12:02:00,
2013-09-01 14:07:00,61.8,49.0,30.32,WSW,258,5.2,11.5,63,0.00,FEW,,0.00,367.0,WeatherDisplay:10.37,2013-09-01 12:07:00,
2013-09-01 14:12:00,62.0,49.2,30.32,WNW,298,5.8,11.5,63,0.00,FEW,,0.00,383.0,WeatherDisplay:10.37,2013-09-01 12:12:00,
2013-09-01 14:17:00,62.1,49.3,30.32,WNW,295,8.1,11.5,63,0.00,FEW,,0.00,350.0,WeatherDisplay:10.37,2013-09-01 12:17:00,
2013-09-01 14:22:00,62.1,49.8,30.32,West,273,7.6,13.8,64,0.00,FEW,,0.00,272.0,WeatherDisplay:10.37,2013-09-01 12:22:00,
2013-09-01 14:27:00,62.2,49.8,30.32,West,263,9.7,11.5,64,0.00,FEW,,0.00,287.0,WeatherDisplay:10.37,2013-09-01 12:27:00,
2013-09-01 14:32:00,62.1,49.8,30.32,NW,307,6.3,11.5,64,0.00,FEW,,0.00,274.0,WeatherDisplay:10.37,2013-09-01 12:32:00,
2013-09-01 14:37:00,62.0,49.7,30.32,WNW,282,8.0,11.5,64,0.00,FEW,,0.00,376.0,WeatherDisplay:10.37,2013-09-01 12:37:00,
2013-09-01 14:42:00,61.9,50.0,30.32,WSW,249,8.8,11.5,65,0.00,FEW,,0.00,343.0,WeatherDisplay:10.37,2013-09-01 12:42:00,
2013-09-01 14:47:00,61.9,49.1,30.32,WNW,288,7.9,16.1,63,0.00,FEW,,0.00,369.0,WeatherDisplay:10.37,2013-09-01 12:47:00,
2013-09-01 14:52:00,61.8,49.0,30.32,WNW,284,6.7,10.4,63,0.00,FEW,,0.00,345.0,WeatherDisplay:10.37,2013-09-01 12:52:00,
2013-09-01 14:57:00,62.0,49.2,30.32,West,264,5.8,11.5,63,0.00,FEW,,0.00,338.0,WeatherDisplay:10.37,2013-09-01 12:57:00,
2013-09-01 15:02:00,62.1,48.5,30.32,WSW,255,8.0,12.7,61,0.00,FEW,,0.00,371.0,WeatherDisplay:10.37,2013-09-01 13:02:00,
2013-09-01 15:07:00,62.3,48.7,30.32,WNW,290,4.8,9.2,61,0.00,BKN,,0.00,390.0,WeatherDisplay:10.37,2013-09-01 13:07:00,
2013-09-01 15:12:00,62.3,49.1,30.32,WNW,298,8.1,12.7,62,0.00,BKN,,0.00,334.0,WeatherDisplay:10.37,2013-09-01 13:12:00,
2013-09-01 15:17:00,62.4,49.2,30.33,WNW,292,4.5,8.1,62,0.00,BKN,,0.00,294.0,WeatherDisplay:10.37,2013-09-01 13:17:00,
2013-09-01 15:22:00,62.3,49.1,30.33,West,277,9.3,15.0,62,0.00,BKN,,0.00,272.0,WeatherDisplay:10.37,2013-09-01 13:22:00,
2013-09-01 15:27:00,62.0,49.2,30.33,WNW,292,7.7,9.2,63,0.00,BKN,,0.00,260.0,WeatherDisplay:10.37,2013-09-01 13:27:00,
2013-09-01 15:32:00,62.0,49.7,30.33,WSW,246,5.9,11.5,64,0.00,BKN,,0.00,487.0,WeatherDisplay:10.37,2013-09-01 13:32:00,
2013-09-01 15:37:00,61.9,49.6,30.33,WNW,296,9.7,16.1,64,0.00,SCT,,0.00,267.0,WeatherDisplay:10.37,2013-09-01 13:37:00,
2013-09-01 15:42:00,62.0,50.5,30.33,West,272,9.4,13.8,66,0.00,SCT,,0.00,510.0,WeatherDisplay:10.37,2013-09-01 13:42:00,
2013-09-01 15:47:00,62.4,50.5,30.33,WNW,298,9.5,12.0,65,0.00,SCT,,0.00,439.0,WeatherDisplay:10.37,2013-09-01 13:47:00,
2013-09-01 15:52:00,62.3,49.9,30.32,NW,309,9.2,12.7,64,0.00,SCT,,0.00,436.0,WeatherDisplay:10.37,2013-09-01 13:52:00,
2013-09-01 15:57:00,62.3,49.9,30.32,WNW,297,5.5,11.5,64,0.00,SCT,,0.00,373.0,WeatherDisplay:10.37,2013-09-01 13:57:00,
2013-09-01 16:02:00,62.6,49.8,30.32,WSW,253,7.0,15.0,63,0.00,SCT,,0.00,454.0,WeatherDisplay:10.37,2013-09-01 14:02:00,
2013-09-01 16:07:00,62.5,49.7,30.31,WNW,286,9.4,12.7,63,0.00,SCT,,0.00,396.0,WeatherDisplay:10.37,2013-09-01 14:07:00,
2013-09-01 16:12:00,62.5,50.1,30.32,WNW,285,6.0,11.5,64,0.00,SCT,,0.00,367.0,WeatherDisplay:10.37,2013-09-01 14:12:00,
2013-09-01 16:17:00,62.6,49.8,30.31,WSW,258,9.2,16.1,63,0.00,SCT,,0.00,339.0,WeatherDisplay:10.37,2013-09-01 14:17:00,
2013-09-01 16:22:00,62.5,50.1,30.32,West,264,7.0,11.0,64,0.00,SCT,,0.00,250.0,WeatherDisplay:10.37,2013-09-01 14:22:00,
2013-09-01 16:27:00,62.3,49.9,30.32,WSW,253,10.3,15.0,64,0.00,SCT,,0.00,237.0,WeatherDisplay:10.37,2013-09-01 14:27:00,
2013-09-01 16:32:00,62.0,49.7,30.32,WNW,293,8.5,13.8,64,0.00,SCT,,0.00,204.0,WeatherDisplay:10.37,2013-09-01 14:32:00,
2013-09-01 16:37:00,61.6,49.3,30.32,WSW,253,8.3,15.0,64,0.00,FEW,,0.00,199.0,WeatherDisplay:10.37,2013-09-01 14:37:00,
2013-09-01 16:42:00,61.5,50.0,30.32,West,264,8.9,13.0,66,0.00,FEW,,0.00,178.0,WeatherDisplay:10.37,2013-09-01 14:42:00,
2013-09-01 16:47:00,61.4,49.9,30.32,WNW,289,5.1,11.5,66,0.00,FEW,,0.00,181.0,WeatherDisplay:10.37,2013-09-01 14:47:00,
2013-09-01 16:52:00,61.4,50.3,30.32,West,266,6.7,11.5,67,0.00,FEW,,0.00,148.0,WeatherDisplay:10.37,2013-09-01 14:52:00,
2013-09-01 16:57:00,61.4,50.3,30.32,NW,305,9.9,13.8,67,0.00,FEW,,0.00,167.0,WeatherDisplay:10.37,2013-09-01 14:57:00,
2013-09-01 17:02:00,61.2,50.1,30.32,West,278,10.6,12.0,67,0.00,FEW,,0.00,181.0,WeatherDisplay:10.37,2013-09-01 15:02:00,
2013-09-01 17:07:00,61.2,50.1,30.31,West,275,6.6,13.8,67,0.00,SCT,,0.00,160.0,WeatherDisplay:10.37,2013-09-01 15:07:00,
2013-09-01 17:12:00,61.1,50.0,30.31,WNW,298,8.0,11.5,67,0.00,SCT,,0.00,172.0,WeatherDisplay:10.37,2013-09-01 15:12:00,
2013-09-01 17:17:00,61.1,50.0,30.31,West,263,6.9,11.5,67,0.00,SCT,,0.00,179.0,WeatherDisplay:10.37,2013-09-01 15:17:00,
2013-09-01 17:22:00,61.2,50.1,30.31,West,261,5.9,9.2,67,0.00,SCT,,0.00,156.0,WeatherDisplay:10.37,2013-09-01 15:22:00,
2013-09-01 17:27:00,61.2,50.5,30.31,West,265,4.7,9.2,68,0.00,SCT,,0.00,160.0,WeatherDisplay:10.37,2013-09-01 15:27:00,
2013-09-01 17:32:00,61.3,50.6,30.31,WSW,246,5.5,12.0,68,0.00,SCT,,0.00,111.0,WeatherDisplay:10.37,2013-09-01 15:32:00,
2013-09-01 17:37:00,61.2,50.5,30.30,West,276,4.3,6.9,68,0.00,SCT,,0.00,90.0,WeatherDisplay:10.37,2013-09-01 15:37:00,
2013-09-01 17:42:00,61.1,50.4,30.30,West,265,2.9,11.5,68,0.00,SCT,,0.00,134.0,WeatherDisplay:10.37,2013-09-01 15:42:00,
2013-09-01 17:47:00,61.1,50.4,30.29,West,267,4.4,6.9,68,0.00,SCT,,0.00,137.0,WeatherDisplay:10.37,2013-09-01 15:47:00,
2013-09-01 17:52:00,61.1,50.4,30.29,West,273,5.8,11.5,68,0.00,SCT,,0.00,149.0,WeatherDisplay:10.37,2013-09-01 15:52:00,
2013-09-01 17:57:00,61.1,50.4,30.29,WSW,252,5.2,10.4,68,0.00,SCT,,0.00,144.0,WeatherDisplay:10.37,2013-09-01 15:57:00,
2013-09-01 18:02:00,61.2,50.9,30.29,WSW,242,9.1,12.7,69,0.00,SCT,,0.00,130.0,WeatherDisplay:10.37,2013-09-01 16:02:00,
2013-09-01 18:07:00,61.1,50.8,30.29,West,270,4.9,10.4,69,0.00,BKN,,0.00,128.0,WeatherDisplay:10.37,2013-09-01 16:07:00,
2013-09-01 18:12:00,61.1,50.4,30.29,WSW,257,7.1,11.5,68,0.00,BKN,,0.00,127.0,WeatherDisplay:10.37,2013-09-01 16:12:00,
2013-09-01 18:17:00,61.1,50.4,30.28,West,280,7.8,11.5,68,0.00,BKN,,0.00,120.0,WeatherDisplay:10.37,2013-09-01 16:17:00,
2013-09-01 18:22:00,61.0,50.7,30.29,West,269,4.8,4.8,69,0.00,BKN,,0.00,109.0,WeatherDisplay:10.37,2013-09-01 16:22:00,
2013-09-01 18:27:00,61.0,50.7,30.29,WNW,290,5.2,10.4,69,0.00,BKN,,0.00,100.0,WeatherDisplay:10.37,2013-09-01 16:27:00,
2013-09-01 18:32:00,61.0,50.7,30.29,West,269,6.3,6.3,69,0.00,BKN,,0.00,86.0,WeatherDisplay:10.37,2013-09-01 16:32:00,
2013-09-01 18:37:00,61.0,50.7,30.30,WNW,284,5.5,8.1,69,0.00,FEW,,0.00,98.0,WeatherDisplay:10.37,2013-09-01 16:37:00,
2013-09-01 18:42:00,60.9,50.6,30.29,WNW,282,2.9,5.8,69,0.00,FEW,,0.00,97.0,WeatherDisplay:10.37,2013-09-01 16:42:00,
2013-09-01 18:47:00,60.9,50.6,30.29,WSW,250,7.2,11.5,69,0.00,FEW,,0.00,81.0,WeatherDisplay:10.37,2013-09-01 16:47:00,
2013-09-01 18:52:00,60.9,50.6,30.29,West,261,5.1,10.4,69,0.00,FEW,,0.00,90.0,WeatherDisplay:10.37,2013-09-01 16:52:00,
2013-09-01 18:57:00,60.9,50.6,30.28,West,266,2.5,11.5,69,0.00,FEW,,0.00,79.0,WeatherDisplay:10.37,2013-09-01 16:57:00,
2013-09-01 19:02:00,60.8,50.5,30.28,WSW,250,7.7,13.0,69,0.00,FEW,,0.00,65.0,WeatherDisplay:10.37,2013-09-01 17:02:00,
2013-09-01 19:07:00,60.9,50.6,30.28,West,259,5.7,6.9,69,0.00,BKN,,0.00,60.0,WeatherDisplay:10.37,2013-09-01 17:07:00,
2013-09-01 19:12:00,60.8,50.9,30.28,West,280,6.4,9.2,70,0.00,BKN,,0.00,58.0,WeatherDisplay:10.37,2013-09-01 17:12:00,
2013-09-01 19:17:00,60.8,50.9,30.28,West,269,5.2,6.9,70,0.00,BKN,,0.00,51.0,WeatherDisplay:10.37,2013-09-01 17:17:00,
2013-09-01 19:22:00,60.7,50.8,30.28,West,276,5.3,9.2,70,0.00,BKN,,0.00,47.0,WeatherDisplay:10.37,2013-09-01 17:22:00,
2013-09-01 19:27:00,60.7,51.2,30.28,West,259,4.0,10.4,71,0.00,BKN,,0.00,40.0,WeatherDisplay:10.37,2013-09-01 17:27:00,
2013-09-01 19:32:00,60.7,51.2,30.28,West,271,6.9,7.0,71,0.00,BKN,,0.00,33.0,WeatherDisplay:10.37,2013-09-01 17:32:00,
2013-09-01 19:37:00,60.6,51.5,30.28,West,261,3.4,5.8,72,0.00,BKN,,0.00,30.0,WeatherDisplay:10.37,2013-09-01 17:37:00,
2013-09-01 19:42:00,60.6,51.5,30.28,WSW,255,8.4,11.5,72,0.00,BKN,,0.00,26.0,WeatherDisplay:10.37,2013-09-01 17:42:00,
2013-09-01 19:47:00,60.6,51.5,30.29,West,275,1.8,5.8,72,0.00,BKN,,0.00,16.0,WeatherDisplay:10.37,2013-09-01 17:47:00,
2013-09-01 19:52:00,60.6,51.5,30.28,West,278,4.5,11.5,72,0.00,BKN,,0.00,18.0,WeatherDisplay:10.37,2013-09-01 17:52:00,
2013-09-01 19:57:00,60.6,51.5,30.28,West,269,4.2,9.0,72,0.00,BKN,,0.00,16.0,WeatherDisplay:10.37,2013-09-01 17:57:00,
2013-09-01 20:02:00,60.6,51.1,30.28,West,277,3.2,8.1,71,0.00,BKN,,0.00,12.0,WeatherDisplay:10.37,2013-09-01 18:02:00,
2013-09-01 20:07:00,60.6,51.5,30.28,West,267,4.4,4.6,72,0.00,OVC,,0.00,11.0,WeatherDisplay:10.37,2013-09-01 18:07:00,
2013-09-01 20:12:00,60.6,51.5,30.28,West,267,4.6,5.8,72,0.00,OVC,,0.00,7.0,WeatherDisplay:10.37,2013-09-01 18:12:00,
2013-09-01 20:17:00,60.6,51.5,30.28,West,268,0.7,4.6,72,0.00,OVC,,0.00,5.0,WeatherDisplay:10.37,2013-09-01 18:17:00,
2013-09-01 20:22:00,60.5,51.4,30.28,West,271,4.1,5.0,72,0.00,OVC,,0.00,0.0,WeatherDisplay:10.37,2013-09-01 18:22:00,
2013-09-01 20:27:00,60.5,51.8,30.28,West,271,0.8,3.5,73,0.00,OVC,,0.00,0.0,WeatherDisplay:10.37,2013-09-01 18:27:00,
2013-09-01 20:32:00,60.5,51.8,30.28,West,271,0.7,4.6,73,0.00,OVC,,0.00,0.0,WeatherDisplay:10.37,2013-09-01 18:32:00,
2013-09-01 20:37:00,60.5,52.1,30.27,West,269,3.2,4.6,74,0.00,FEW,,0.00,0.0,WeatherDisplay:10.37,2013-09-01 18:37:00,
2013-09-01 20:42:00,60.6,52.6,30.28,West,268,2.8,3.5,75,0.00,FEW,,0.00,0.0,WeatherDisplay:10.37,2013-09-01 18:42:00,
2013-09-01 20:47:00,60.5,52.5,30.27,West,268,1.0,3.0,75,0.00,FEW,,0.00,0.0,WeatherDisplay:10.37,2013-09-01 18:47:00,
2013-09-01 20:52:00,60.5,52.5,30.27,West,267,3.4,5.8,75,0.00,FEW,,0.00,0.0,WeatherDisplay:10.37,2013-09-01 18:52:00,
2013-09-01 20:57:00,60.6,53.0,30.27,West,261,3.5,8.1,76,0.00,FEW,,0.00,0.0,WeatherDisplay:10.37,2013-09-01 18:57:00,
2013-09-01 21:02:00,60.6,53.0,30.27,West,261,0.0,1.2,76,0.00,FEW,,0.00,0.0,WeatherDisplay:10.37,2013-09-01 19:02:00,
2013-09-01 21:07:00,60.6,53.0,30.27,West,261,2.8,5.8,76,0.00,BKN,,0.00,0.0,WeatherDisplay:10.37,2013-09-01 19:07:00,
2013-09-01 21:12:00,60.6,53.0,30.27,West,261,0.4,3.5,76,0.00,BKN,,0.00,0.0,WeatherDisplay:10.37,2013-09-01 19:12:00,
2013-09-01 21:17:00,60.6,53.0,30.26,WSW,258,2.4,5.8,76,0.00,BKN,,0.00,0.0,WeatherDisplay:10.37,2013-09-01 19:17:00,
2013-09-01 21:22:00,60.6,53.3,30.26,WSW,258,2.9,4.6,77,0.00,BKN,,0.00,0.0,WeatherDisplay:10.37,2013-09-01 19:22:00,
2013-09-01 21:31:00,60.6,53.3,30.27,WSW,258,0.6,2.0,77,0.00,BKN,,0.00,0.0,WeatherDisplay:10.37,2013-09-01 19:31:00,
2013-09-01 21:36:00,60.6,53.3,30.27,WSW,258,1.0,4.0,77,0.00,CLR,,0.00,0.0,WeatherDisplay:10.37,2013-09-01 19:36:00,
2013-09-01 21:41:00,60.6,53.3,30.27,WSW,258,0.0,0.0,77,0.00,CLR,,0.00,0.0,WeatherDisplay:10.37,2013-09-01 19:41:00,
2013-09-01 21:46:00,60.5,53.6,30.27,WSW,258,0.0,0.0,78,0.00,CLR,,0.00,0.0,WeatherDisplay:10.37,2013-09-01 19:46:00,
2013-09-01 21:51:00,60.6,54.0,30.27,WSW,258,0.8,6.0,79,0.00,CLR,,0.00,0.0,WeatherDisplay:10.37,2013-09-01 19:51:00,
2013-09-01 21:56:00,60.7,54.1,30.27,WSW,257,4.4,10.4,79,0.00,CLR,,0.00,0.0,WeatherDisplay:10.37,2013-09-01 19:56:00,
2013-09-01 22:01:00,61.0,54.4,30.27,WSW,258,4.7,6.9,79,0.00,CLR,,0.00,0.0,WeatherDisplay:10.37,2013-09-01 20:01:00,
2013-09-01 22:06:00,61.3,54.4,30.27,West,260,3.6,10.0,78,0.00,SCT,,0.00,0.0,WeatherDisplay:10.37,2013-09-01 20:06:00,
2013-09-01 22:11:00,61.6,54.3,30.27,West,261,5.5,9.2,77,0.00,SCT,,0.00,0.0,WeatherDisplay:10.37,2013-09-01 20:11:00,
2013-09-01 22:16:00,61.8,54.1,30.27,West,259,7.3,9.2,76,0.00,SCT,,0.00,0.0,WeatherDisplay:10.37,2013-09-01 20:16:00,
2013-09-01 22:21:00,62.0,54.3,30.27,WSW,249,6.8,10.4,76,0.00,SCT,,0.00,0.0,WeatherDisplay:10.37,2013-09-01 20:21:00,
2013-09-01 22:26:00,62.2,54.5,30.27,WSW,252,4.9,9.2,76,0.00,SCT,,0.00,0.0,WeatherDisplay:10.37,2013-09-01 20:26:00,
2013-09-01 22:31:00,62.3,54.6,30.26,WSW,251,4.8,6.9,76,0.00,SCT,,0.00,0.0,WeatherDisplay:10.37,2013-09-01 20:31:00,
2013-09-01 22:36:00,62.4,54.7,30.26,WSW,254,4.6,7.0,76,0.00,CLR,,0.00,0.0,WeatherDisplay:10.37,2013-09-01 20:36:00,
2013-09-01 22:41:00,62.4,54.4,30.26,WSW,255,4.2,6.9,75,0.00,CLR,,0.00,0.0,WeatherDisplay:10.37,2013-09-01 20:41:00,
2013-09-01 22:46:00,62.4,54.4,30.26,West,261,6.4,9.2,75,0.00,CLR,,0.00,0.0,WeatherDisplay:10.37,2013-09-01 20:46:00,
2013-09-01 22:51:00,62.5,54.4,30.26,West,264,4.4,5.8,75,0.00,CLR,,0.00,0.0,WeatherDisplay:10.37,2013-09-01 20:51:00,
2013-09-01 22:56:00,62.6,54.2,30.26,West,259,6.7,7.0,74,0.00,CLR,,0.00,0.0,WeatherDisplay:10.37,2013-09-01 20:56:00,
2013-09-01 23:01:00,62.7,54.3,30.26,WSW,257,4.8,8.1,74,0.00,CLR,,0.00,0.0,WeatherDisplay:10.37,2013-09-01 21:01:00,
2013-09-01 23:06:00,62.7,54.6,30.26,WSW,239,7.2,9.2,75,0.00,CLR,,0.00,0.0,WeatherDisplay:10.37,2013-09-01 21:06:00,
2013-09-01 23:11:00,62.8,54.7,30.26,WSW,251,6.0,9.2,75,0.00,CLR,,0.00,0.0,WeatherDisplay:10.37,2013-09-01 21:11:00,
2013-09-01 23:16:00,62.9,54.8,30.26,WSW,255,4.8,10.4,75,0.00,CLR,,0.00,0.0,WeatherDisplay:10.37,2013-09-01 21:16:00,
2013-09-01 23:21:00,62.9,54.8,30.25,WSW,257,6.5,9.2,75,0.00,CLR,,0.00,0.0,WeatherDisplay:10.37,2013-09-01 21:21:00,
2013-09-01 23:26:00,63.0,54.6,30.25,WSW,257,5.4,11.5,74,0.00,CLR,,0.00,0.0,WeatherDisplay:10.37,2013-09-01 21:26:00,
2013-09-01 23:31:00,63.1,54.7,30.25,WSW,255,7.2,11.5,74,0.00,CLR,,0.00,0.0,WeatherDisplay:10.37,2013-09-01 21:31:00,
2013-09-01 23:36:00,63.1,54.7,30.25,WSW,253,7.2,10.4,74,0.00,CLR,,0.00,0.0,WeatherDisplay:10.37,2013-09-01 21:36:00,
2013-09-01 23:41:00,63.1,54.7,30.25,West,263,4.2,7.0,74,0.00,CLR,,0.00,0.0,WeatherDisplay:10.37,2013-09-01 21:41:00,
2013-09-01 23:46:00,63.1,54.7,30.25,West,265,4.8,11.5,74,0.00,CLR,,0.00,0.0,WeatherDisplay:10.37,2013-09-01 21:46:00,
2013-09-01 23:51:00,63.0,54.6,30.25,West,260,5.3,8.1,74,0.00,CLR,,0.00,0.0,WeatherDisplay:10.37,2013-09-01 21:51:00,
2013-09-01 23:56:00,62.9,54.5,30.24,West,260,6.9,10.4,74,0.00,CLR,,0.00,0.0,WeatherDisplay:10.37,2013-09-01 21:56:00,